Tuesday, December 18, 2018, 12:48 PM EST
Back to Local

KMMK, Meriden Markham Municipal Airport

Location: Meriden, CT, United States Lat: 41.517
Local Time: 12:48 PM EST (17:48 GMT) Lon: -72.833
Time Zone: US/Eastern Elev: 101 ft

Show me the last for .
Show Decoded

2018-12-18 11:53 METAR KMMK 181653Z AUTO 33018G29KT 10SM CLR M02/M13 A2996 RMK AO2 PK WND
                 32033/1557 SLP145 T10171133 =
2018-12-18 10:53 METAR KMMK 181553Z AUTO 31021G32KT 10SM CLR M02/M14 A2995 RMK AO2 PK WND
                 31035/1458 SLP144 T10171139 =
2018-12-18 09:53 METAR KMMK 181453Z AUTO 32014G35KT 10SM CLR M03/M14 A2996 RMK AO2 PK WND
                 33036/1427 SLP146 T10331139 51020 =
2018-12-18 08:53 METAR KMMK 181353Z AUTO 32020G30KT 10SM CLR M04/M14 A2996 RMK AO2 PK WND
                 34032/1333 SLP146 T10391139 =
2018-12-18 07:53 METAR KMMK 181253Z AUTO 33014G24KT 10SM CLR M04/M14 A2993 RMK AO2 PK WND
                 33029/1204 SLP136 T10441139 =
2018-12-18 06:53 METAR KMMK 181153Z AUTO 33016G29KT 10SM CLR M04/M14 A2990 RMK AO2 PK WND
                 33029/1149 SLP126 T10441139 10017 21044 51026 =
2018-12-18 05:53 METAR KMMK 181053Z AUTO 32014G23KT 10SM CLR M04/M12 A2987 RMK AO2 PK WND
                 30026/1019 SLP118 T10391122 =
2018-12-18 04:53 METAR KMMK 180953Z AUTO 32013KT 10SM BKN043 M04/M12 A2985 RMK AO2 PK WND
                 33029/0907 SLP111 T10391122 =
2018-12-18 03:53 METAR KMMK 180853Z AUTO 34021G29KT 10SM CLR M03/M13 A2982 RMK AO2 PK WND
                 34034/0843 SLP100 T10331128 53040 =
2018-12-18 02:53 METAR KMMK 180753Z AUTO 32014G28KT 10SM FEW048 M01/M11 A2977 RMK AO2 PK WND
                 30038/0722 SLP082 T10111106 =
2018-12-18 01:53 METAR KMMK 180653Z AUTO 30018G31KT 10SM BKN048 01/M08 A2973 RMK AO2 PK WND
                 27031/0653 SLP067 T00111083 =
2018-12-18 00:53 METAR KMMK 180553Z AUTO 31011G25KT 10SM BKN039 OVC047 02/M06 A2970 RMK AO2 PK
                 WND 32027/0520 SLP060 60000 T00171061 10039 20017 53007 =
2018-12-17 23:53 METAR KMMK 180453Z AUTO 33011G20KT 10SM OVC043 03/M05 A2969 RMK AO2 RAB41E53
                 SLP054 P0000 T00331050 400560022 =
2018-12-17 22:53 METAR KMMK 180353Z AUTO 30005KT 10SM BKN055 OVC080 04/M04 A2968 RMK AO2 SLP050
                 T00391039 =
2018-12-17 21:53 METAR KMMK 180253Z AUTO 28004KT 10SM FEW048 OVC080 04/M03 A2968 RMK AO2 SLP052
                 T00391028 50001 =
2018-12-17 20:53 METAR KMMK 180153Z AUTO 29006KT 10SM SCT044 SCT050 OVC075 04/M03 A2969 RMK AO2
                 SLP054 T00391028 =
2018-12-17 19:53 METAR KMMK 180053Z AUTO 30009KT 10SM OVC075 04/M03 A2969 RMK AO2 SLP054
                 T00391033 =
2018-12-17 18:53 METAR KMMK 172353Z AUTO 32010KT 10SM CLR 04/M03 A2968 RMK AO2 SLP052 T00391033
                 10056 20039 51017 =
2018-12-17 17:53 METAR KMMK 172253Z AUTO 32013G26KT 10SM BKN065 05/M04 A2966 RMK AO2 PK WND
                 32026/2243 SLP045 T00501039 =
2018-12-17 16:53 METAR KMMK 172153Z AUTO 31008KT 10SM OVC050 05/M03 A2965 RMK AO2 SLP041
                 T00501028 =
2018-12-17 15:53 METAR KMMK 172053Z AUTO 31012KT 10SM BKN037 BKN049 OVC060 06/M01 A2963 RMK AO2
                 SLP034 T00561011 55001 =
2018-12-17 14:53 METAR KMMK 171953Z AUTO 29006KT 10SM SCT060 05/M01 A2961 RMK AO2 SLP028
                 T00501006 =
2018-12-17 13:53 METAR KMMK 171853Z AUTO 30009KT 10SM SCT032 BKN042 OVC050 06/M01 A2961 RMK AO2
                 SLP027 T00561006 =
2018-12-17 13:30 METAR KMMK 171830Z AUTO 30006KT 10SM BKN030 OVC038 06/00 A2962 RMK AO2 T00560000
                 =
2018-12-17 12:53 METAR KMMK 171753Z AUTO 29007KT 10SM BKN026 OVC030 05/00 A2963 RMK AO2 SLP035
                 T00500000 10056 20028 56022 =

Support USWX by starting your Amazon purchase here.